• Join FlightAware (Why Join?)
  • Login
  • US Flag 
10:42AM EDT


 

Airport Tracker/Info


-or-


 

Live Flight TrackerFlight Track Log ✈ MTN7305 ✈ 11-Jun-2013 ✈ KBWI - KEWR

Flight Track Log - Related Links

Times and Time Zones

All times are in EDT time to prevent confusion due to time zone crossing. See the MTN7305 flight status page for this flight to view local times or setup timezone preferences in your user account.

Time Position Orientation Groundspeed Altitude Reporting Facility
EDT Latitude Longitude Course Direction KTS MPH feet Rate Location/Type
11:08PM 39.1833 -76.7000 322° Northwest 98 113 1,000  Level Potomac TRACON
11:10PM 39.2000 -76.7167 322° Northwest 110 127 1,600 600 Climbing Potomac TRACON
11:11PM 39.2333 -76.7167 360° North 135 155 2,300 600 Climbing Potomac TRACON
11:12PM 39.2667 -76.6667 49° Northeast 134 154 2,900 600 Climbing Potomac TRACON
11:12PM 39.2833 -76.6333 57° Northeast 132 152 3,500 540 Climbing Potomac TRACON
11:13PM 39.3000 -76.6000 57° Northeast 135 155 4,000 540 Climbing Potomac TRACON
11:15PM 39.3333 -76.5667 38° Northeast 135 155 4,700 420 Climbing Potomac TRACON
11:16PM 39.3500 -76.5333 57° Northeast 145 167 5,000 120 Climbing Potomac TRACON
11:17PM 39.3833 -76.4833 49° Northeast 150 173 5,000  Level Potomac TRACON
11:18PM 39.4167 -76.4500 38° Northeast 162 186 5,000  Level Potomac TRACON
11:19PM 39.4500 -76.4000 49° Northeast 162 186 5,000  Level Potomac TRACON
11:20PM 39.4667 -76.3500 67° East 167 192 5,000  Level Potomac TRACON
11:22PM 39.5333 -76.2500 49° Northeast 169 194 5,000  Level Philadelphia TRACON
11:23PM 39.5667 -76.2000 49° Northeast 169 194 5,000  Level Philadelphia TRACON
11:24PM 39.6000 -76.1500 49° Northeast 170 196 5,000  Level Philadelphia TRACON
11:25PM 39.6333 -76.1167 38° Northeast 169 194 5,000  Level Philadelphia TRACON
11:26PM 39.6667 -76.0667 49° Northeast 173 199 5,000  Level Philadelphia TRACON
11:27PM 39.6833 -76.0167 67° East 176 203 5,000  Level Philadelphia TRACON
11:28PM 39.7167 -75.9667 49° Northeast 175 201 5,000  Level Philadelphia TRACON
11:29PM 39.7333 -75.9000 72° East 176 203 5,000  Level Philadelphia TRACON
11:30PM 39.7667 -75.8500 49° Northeast 176 203 5,000  Level Philadelphia TRACON
11:31PM 39.8000 -75.8000 49° Northeast 171 197 5,000  Level Philadelphia TRACON
11:32PM 39.8167 -75.7500 67° East 167 192 5,000  Level Philadelphia TRACON
11:33PM 39.8500 -75.7000 49° Northeast 169 194 5,000  Level Philadelphia TRACON
11:34PM 39.8667 -75.6500 67° East 164 189 5,000  Level Philadelphia TRACON
11:35PM 39.9000 -75.6000 49° Northeast 166 191 5,000  Level Philadelphia TRACON
11:36PM 39.9167 -75.5500 66° East 166 191 5,000  Level Philadelphia TRACON
11:37PM 39.9500 -75.5000 49° Northeast 166 191 5,000  Level Philadelphia TRACON
11:38PM 39.9833 -75.4500 49° Northeast 166 191 5,000  Level Philadelphia TRACON
11:39PM 40.0000 -75.4000 66° East 167 192 5,000  Level Philadelphia TRACON
11:40PM 40.0333 -75.3500 49° Northeast 167 192 5,000  Level Philadelphia TRACON
11:41PM 40.0500 -75.3000 66° East 167 192 5,000  Level Philadelphia TRACON
11:42PM 40.0833 -75.2500 49° Northeast 167 192 5,000  Level Philadelphia TRACON
11:43PM 40.1167 -75.2000 49° Northeast 169 194 5,000  Level Philadelphia TRACON
11:44PM 40.1333 -75.1500 66° East 169 194 5,100  Climbing Philadelphia TRACON
11:45PM 40.1667 -75.1000 49° Northeast 170 196 5,100 -60 Level Philadelphia TRACON
11:46PM 40.1833 -75.0333 72° East 171 197 5,000 -60 Descending New York TRACON
11:47PM 40.2167 -74.9833 49° Northeast 172 198 5,000  Level New York TRACON
11:48PM 40.2333 -74.9500 57° Northeast 172 198 5,000  Level New York TRACON
11:49PM 40.2667 -74.8833 57° Northeast 167 192 5,000  Level New York TRACON
11:50PM 40.3000 -74.8500 37° Northeast 165 190 5,000  Level New York TRACON
11:51PM 40.3167 -74.8000 66° East 166 191 5,000  Level New York TRACON
11:52PM 40.3500 -74.7500 49° Northeast 169 194 5,000 -180 Level New York TRACON
11:53PM 40.3833 -74.7000 49° Northeast 181 208 4,700 -480 Descending New York TRACON
11:54PM 40.4167 -74.6500 49° Northeast 183 211 4,100 -600 Descending New York TRACON
11:55PM 40.4500 -74.6000 49° Northeast 183 211 3,500 -540 Descending New York TRACON
11:56PM 40.5000 -74.5500 37° Northeast 183 211 3,000 -300 Descending New York TRACON
11:57PM 40.5167 -74.5000 66° East 172 198 3,000  Level New York TRACON
11:58PM 40.5500 -74.4667 37° Northeast 169 194 3,000 -120 Level New York TRACON
11:59PM 40.5833 -74.4167 49° Northeast 173 199 2,800 -300 Descending New York TRACON
12:00AM 40.6167 -74.3667 49° Northeast 182 209 2,500 -240 Descending New York TRACON
12:01AM 40.6500 -74.3167 49° Northeast 175 201 2,400 -180 Descending New York TRACON
12:02AM 40.6833 -74.2833 37° Northeast 183 211 2,200 -480 Descending New York TRACON
12:02AM 40.7000 -74.2333 66° East 185 213 1,600 -600 Descending New York TRACON
12:04AM 40.7333 -74.1833 49° Northeast 156 180 1,000 -600 Descending New York TRACON
12:06AM 40.6925 -74.1687 52° Northeast  Level Estimated
12:13AM 40.6925 -74.1687 52° Northeast  Level Estimated
12:14AM 40.6925 -74.1687 52° Northeast  Level Estimated